Schedule Details

Flight Number: CPX261
Departure: Kansas City International Airport (KMCI) at N/A
Arrival: General Edward Lawrence Logan International Airport (KBOS) at N/A
Route: LAKES2 SPI ROD KLYNE Q29 JHW Q82 PONCT JFUND2


Current Weather Information
KMCI 180553Z 30009KT 9SM CLR M08/M11 A3019 RMK AO2 SLP237 4/003 24/931001 T10831111 11039 21083 410331083 51026
KBOS 180605Z 18007KT 3/4SM R04R/2800VP6000FT -SN BR BKN008 OVC024 M02/M03 A3002 RMK AO2 P0001 T10171033

Route Map